createdAt,value
2019-05-22T00:01:00.657Z,1.60
2019-05-22T00:03:33.799Z,1.27
2019-05-22T00:06:03.096Z,1.20
2019-05-22T00:08:34.141Z,1.40
2019-05-22T00:11:04.409Z,1.30
2019-05-22T00:13:36.184Z,1.50
2019-05-22T00:16:06.027Z,1.40
2019-05-22T00:18:35.745Z,1.53
2019-05-22T00:21:05.344Z,1.50
2019-05-22T00:23:35.077Z,1.47
2019-05-22T00:26:03.773Z,1.50
2019-05-22T00:28:32.463Z,1.60
2019-05-22T00:31:01.497Z,1.73
2019-05-22T00:33:31.295Z,1.57
2019-05-22T00:36:00.805Z,1.60
2019-05-22T00:38:31.799Z,1.40
2019-05-22T00:41:05.139Z,1.63
2019-05-22T00:43:42.070Z,1.30
2019-05-22T00:46:12.829Z,1.37
2019-05-22T00:48:46.277Z,1.30
2019-05-22T00:51:29.266Z,1.60
2019-05-22T00:54:00.046Z,1.50
2019-05-22T00:56:31.670Z,1.50
2019-05-22T00:59:04.926Z,1.40
2019-05-22T01:01:38.740Z,1.40
2019-05-22T01:04:09.246Z,1.60
2019-05-22T01:06:38.480Z,1.40
2019-05-22T01:09:10.144Z,1.87
2019-05-22T01:11:39.546Z,1.43
2019-05-22T01:14:09.567Z,1.73
2019-05-22T01:16:39.572Z,3.37
2019-05-22T01:19:09.483Z,3.87
2019-05-22T01:21:38.311Z,4.47
2019-05-22T01:24:07.706Z,3.17
2019-05-22T01:26:37.011Z,1.63
2019-05-22T01:29:06.035Z,1.60
2019-05-22T01:31:37.388Z,1.90
2019-05-22T01:34:09.546Z,1.63
2019-05-22T01:36:46.200Z,1.97
2019-05-22T01:39:35.293Z,1.60
2019-05-22T01:42:06.983Z,1.30
2019-05-22T01:44:36.479Z,1.30
2019-05-22T01:47:12.225Z,1.30
2019-05-22T01:49:44.429Z,1.00
2019-05-22T01:52:13.327Z,1.40
2019-05-22T01:54:43.162Z,1.20
2019-05-22T01:57:11.790Z,1.13
2019-05-22T01:59:42.092Z,1.57
2019-05-22T02:02:12.721Z,1.10
2019-05-22T02:04:42.517Z,1.30
2019-05-22T02:07:11.813Z,1.20
2019-05-22T02:09:42.889Z,1.30
2019-05-22T02:12:16.063Z,1.10
2019-05-22T02:14:48.254Z,1.77
2019-05-22T02:17:19.983Z,1.40
2019-05-22T02:19:49.014Z,1.63
2019-05-22T02:22:18.942Z,1.30
2019-05-22T02:24:50.151Z,1.40
2019-05-22T02:27:19.830Z,1.20
2019-05-22T02:29:49.328Z,1.40
2019-05-22T02:32:20.920Z,1.57
2019-05-22T02:34:50.224Z,1.37
2019-05-22T02:37:19.631Z,1.40
2019-05-22T02:39:49.023Z,1.70
2019-05-22T02:42:26.201Z,1.27
2019-05-22T02:44:55.486Z,1.40
2019-05-22T02:47:25.104Z,1.50
2019-05-22T02:49:55.970Z,1.50
2019-05-22T02:52:26.262Z,1.27
2019-05-22T02:54:55.553Z,1.50
2019-05-22T02:57:26.468Z,1.37
2019-05-22T02:59:55.785Z,1.10
2019-05-22T03:02:26.482Z,1.03
2019-05-22T03:05:07.331Z,1.00
2019-05-22T03:07:39.212Z,1.40
2019-05-22T03:10:12.254Z,1.00
2019-05-22T03:12:41.845Z,1.57
2019-05-22T03:15:13.084Z,1.97
2019-05-22T03:17:43.572Z,1.50
2019-05-22T03:20:18.822Z,1.63
2019-05-22T03:23:18.875Z,1.40
2019-05-22T03:25:47.907Z,1.80
2019-05-22T03:28:17.214Z,1.63
2019-05-22T03:30:47.284Z,2.10
2019-05-22T03:33:16.317Z,2.10
2019-05-22T03:35:48.602Z,2.07
2019-05-22T03:38:19.072Z,2.33
2019-05-22T03:40:50.944Z,2.17
2019-05-22T03:43:29.267Z,2.10
2019-05-22T03:46:00.630Z,2.40
2019-05-22T03:48:35.052Z,2.20
2019-05-22T03:51:13.503Z,2.20
2019-05-22T03:53:44.044Z,2.67
2019-05-22T03:56:13.427Z,2.33
2019-05-22T03:58:42.132Z,2.40
2019-05-22T04:01:11.587Z,2.67
2019-05-22T04:03:40.857Z,3.10
2019-05-22T04:06:09.997Z,3.70
2019-05-22T04:08:39.571Z,3.00
2019-05-22T04:11:13.151Z,2.87
2019-05-22T04:13:41.850Z,2.40
2019-05-22T04:16:12.877Z,3.00
2019-05-22T04:18:41.786Z,3.40
2019-05-22T04:21:10.681Z,2.80
2019-05-22T04:23:40.031Z,2.70
2019-05-22T04:26:09.530Z,3.67
2019-05-22T04:28:41.120Z,3.13
2019-05-22T04:31:10.662Z,3.13
2019-05-22T04:33:39.355Z,2.70
2019-05-22T04:36:10.304Z,4.37
2019-05-22T04:38:39.360Z,5.43
2019-05-22T04:41:08.464Z,2.77
2019-05-22T04:43:37.261Z,3.33
2019-05-22T04:46:07.780Z,3.63
2019-05-22T04:48:37.807Z,3.03
2019-05-22T04:51:27.104Z,2.77
2019-05-22T04:53:56.913Z,2.77
2019-05-22T04:56:27.594Z,2.53
2019-05-22T04:58:57.004Z,2.17
2019-05-22T05:01:26.125Z,2.27
2019-05-22T05:03:54.920Z,2.87
2019-05-22T05:06:24.354Z,3.47
2019-05-22T05:08:53.143Z,3.10
2019-05-22T05:11:22.771Z,3.37
2019-05-22T05:13:51.519Z,2.90
2019-05-22T05:16:20.214Z,3.13
2019-05-22T05:18:49.104Z,3.50
2019-05-22T05:21:17.941Z,3.63
2019-05-22T05:23:47.335Z,3.60
2019-05-22T05:26:16.330Z,2.90
2019-05-22T05:28:45.489Z,2.90
2019-05-22T05:31:14.410Z,3.70
2019-05-22T05:34:08.690Z,2.83
2019-05-22T05:36:37.777Z,3.07
2019-05-22T05:39:10.591Z,3.33
2019-05-22T05:41:39.417Z,3.23
2019-05-22T05:44:08.305Z,4.33
2019-05-22T05:46:37.308Z,4.30
2019-05-22T05:49:06.843Z,3.83
2019-05-22T05:51:37.320Z,4.33
2019-05-22T05:54:09.528Z,3.20
2019-05-22T05:56:40.863Z,5.47
2019-05-22T05:59:10.589Z,3.43
2019-05-22T06:01:44.036Z,2.67
2019-05-22T06:04:13.480Z,3.40
2019-05-22T06:06:52.462Z,2.93
2019-05-22T06:09:22.895Z,3.17
2019-05-22T06:11:56.408Z,2.90
2019-05-22T06:14:32.108Z,2.93
2019-05-22T06:17:14.093Z,3.70
2019-05-22T06:19:48.846Z,3.70
2019-05-22T06:22:19.181Z,4.50
2019-05-22T06:25:01.479Z,4.03
2019-05-22T06:27:42.822Z,3.43
2019-05-22T06:30:16.538Z,3.70
2019-05-22T06:33:09.168Z,3.93
2019-05-22T06:35:38.604Z,3.90
2019-05-22T06:38:43.936Z,3.57
2019-05-22T06:41:13.784Z,3.77
2019-05-22T06:43:45.381Z,3.60
2019-05-22T06:46:16.451Z,3.37
2019-05-22T06:48:45.660Z,3.47
2019-05-22T06:51:19.551Z,2.93
2019-05-22T06:53:45.175Z,2.70
2019-05-22T06:56:13.904Z,3.50
2019-05-22T06:58:42.714Z,3.50
2019-05-22T07:01:11.905Z,3.13
2019-05-22T07:03:40.636Z,3.83
2019-05-22T07:06:09.682Z,3.10
2019-05-22T07:08:38.373Z,2.30
2019-05-22T07:11:08.768Z,1.10
2019-05-22T07:13:39.100Z,1.10
2019-05-22T07:16:07.904Z,1.00
2019-05-22T07:18:36.636Z,1.40
2019-05-22T07:21:06.642Z,1.10
2019-05-22T07:23:35.458Z,1.10
2019-05-22T07:26:04.394Z,1.10
2019-05-22T07:28:33.544Z,1.00
2019-05-22T07:31:02.846Z,1.00
2019-05-22T07:33:31.737Z,0.90
2019-05-22T07:36:10.952Z,1.20
2019-05-22T07:38:31.152Z,1.27
2019-05-22T07:41:00.136Z,0.90
2019-05-22T07:43:28.931Z,0.90
2019-05-22T07:45:57.732Z,0.90
2019-05-22T07:48:27.059Z,1.10
2019-05-22T07:50:56.862Z,1.00
2019-05-22T07:53:26.688Z,1.30
2019-05-22T07:55:56.412Z,0.93
2019-05-22T07:58:26.576Z,1.13
2019-05-22T08:00:57.385Z,0.80
2019-05-22T08:03:27.225Z,1.20
2019-05-22T08:05:58.015Z,1.10
2019-05-22T08:08:27.779Z,0.80
2019-05-22T08:10:58.222Z,1.20
2019-05-22T08:13:27.497Z,1.23
2019-05-22T08:15:56.426Z,1.20
2019-05-22T08:18:27.182Z,1.10
2019-05-22T08:20:56.183Z,0.97
2019-05-22T08:23:26.814Z,0.80
2019-05-22T08:25:58.323Z,2.13
2019-05-22T08:28:28.242Z,1.20
2019-05-22T08:30:57.340Z,2.07
2019-05-22T08:33:26.601Z,2.10
2019-05-22T08:35:56.093Z,2.10
2019-05-22T08:38:30.165Z,2.20
2019-05-22T08:41:00.982Z,2.37
2019-05-22T08:43:32.182Z,1.87
2019-05-22T08:46:01.581Z,2.20
2019-05-22T08:48:32.789Z,1.67
2019-05-22T08:51:02.929Z,1.90
2019-05-22T08:53:46.228Z,1.80
2019-05-22T08:56:03.557Z,1.50
2019-05-22T08:58:33.050Z,1.20
2019-05-22T09:01:02.829Z,1.40
2019-05-22T09:03:31.964Z,1.10
2019-05-22T09:06:00.916Z,1.00
2019-05-22T09:08:30.746Z,1.33
2019-05-22T09:10:59.512Z,1.03
2019-05-22T09:13:28.210Z,1.40
2019-05-22T09:16:01.779Z,1.30
2019-05-22T09:18:28.155Z,1.40
2019-05-22T09:20:58.244Z,1.47
2019-05-22T09:23:26.975Z,1.30
2019-05-22T09:25:56.104Z,1.43
2019-05-22T09:28:24.801Z,1.50
2019-05-22T09:30:53.502Z,1.60
2019-05-22T09:33:23.139Z,1.30
2019-05-22T09:35:51.934Z,1.20
2019-05-22T09:38:20.719Z,1.20
2019-05-22T09:40:50.155Z,1.20
2019-05-22T09:43:19.066Z,0.90
2019-05-22T09:45:47.988Z,1.03
2019-05-22T09:48:17.578Z,1.17
2019-05-22T09:50:46.368Z,1.00
2019-05-22T09:53:15.265Z,1.03
2019-05-22T09:55:47.342Z,1.40
2019-05-22T09:58:15.500Z,0.90
2019-05-22T10:00:44.194Z,0.97
2019-05-22T10:03:13.136Z,0.77
2019-05-22T10:05:42.510Z,0.90
2019-05-22T10:08:11.607Z,0.77
2019-05-22T10:10:40.752Z,0.83
2019-05-22T10:13:09.865Z,0.80
2019-05-22T10:15:39.350Z,0.87
2019-05-22T10:18:08.312Z,0.70
2019-05-22T10:20:37.290Z,0.90
2019-05-22T10:23:15.680Z,0.97
2019-05-22T10:25:37.237Z,0.90
2019-05-22T10:28:07.001Z,1.30
2019-05-22T10:30:35.972Z,1.20
2019-05-22T10:33:05.010Z,1.10
2019-05-22T10:35:34.592Z,0.90
2019-05-22T10:38:03.498Z,1.07
2019-05-22T10:40:32.652Z,1.10
2019-05-22T10:43:00.297Z,1.20
2019-05-22T10:45:29.092Z,1.20
2019-05-22T10:47:57.993Z,0.93
2019-05-22T10:50:27.226Z,1.00
2019-05-22T10:52:56.785Z,0.90
2019-05-22T10:55:25.919Z,1.10
2019-05-22T10:57:54.555Z,0.87
2019-05-22T11:00:24.355Z,0.83
2019-05-22T11:02:53.292Z,1.10
2019-05-22T11:05:22.811Z,0.90
2019-05-22T11:07:52.341Z,0.80
2019-05-22T11:10:24.429Z,0.87
2019-05-22T11:12:53.910Z,0.90
2019-05-22T11:15:23.689Z,0.73
2019-05-22T11:17:53.099Z,0.90
2019-05-22T11:20:22.054Z,1.00
2019-05-22T11:22:51.479Z,1.30
2019-05-22T11:25:20.517Z,0.93
2019-05-22T11:27:49.202Z,0.80
2019-05-22T11:30:19.399Z,0.73
2019-05-22T11:32:48.746Z,0.80
2019-05-22T11:35:20.479Z,0.80
2019-05-22T11:37:49.587Z,0.80
2019-05-22T11:40:20.184Z,0.83
2019-05-22T11:42:50.396Z,0.93
2019-05-22T11:45:20.696Z,0.57
2019-05-22T11:47:49.521Z,1.00
2019-05-22T11:50:18.516Z,0.70
2019-05-22T11:52:47.510Z,0.83
2019-05-22T11:55:16.749Z,0.70
2019-05-22T11:57:47.958Z,0.70
2019-05-22T12:00:20.156Z,0.90
2019-05-22T12:02:49.691Z,0.90
2019-05-22T12:05:20.007Z,0.80
2019-05-22T12:07:49.129Z,0.80
2019-05-22T12:10:21.227Z,0.80
2019-05-22T12:12:52.918Z,0.90
2019-05-22T12:15:25.179Z,0.83
2019-05-22T12:17:54.948Z,0.87
2019-05-22T12:20:24.840Z,0.77
2019-05-22T12:22:53.530Z,0.83
2019-05-22T12:25:22.875Z,0.70
2019-05-22T12:27:51.564Z,0.70
2019-05-22T12:30:21.562Z,1.07
2019-05-22T12:32:51.967Z,0.80
2019-05-22T12:35:22.124Z,0.60
2019-05-22T12:37:51.119Z,0.87
2019-05-22T12:40:20.337Z,0.97
2019-05-22T12:42:49.839Z,0.90
2019-05-22T12:45:23.996Z,0.90
2019-05-22T12:47:53.727Z,0.80
2019-05-22T12:50:24.066Z,0.80
2019-05-22T12:52:52.867Z,0.80
2019-05-22T12:55:21.524Z,0.60
2019-05-22T12:57:50.827Z,0.80
2019-05-22T13:00:23.994Z,1.00
2019-05-22T13:02:54.314Z,0.67
2019-05-22T13:05:23.497Z,0.87
2019-05-22T13:07:52.599Z,0.60
2019-05-22T13:10:22.419Z,0.90
2019-05-22T13:12:51.851Z,0.70
2019-05-22T13:15:23.237Z,0.70
2019-05-22T13:17:54.174Z,0.80
2019-05-22T13:20:41.226Z,0.87
2019-05-22T13:22:58.222Z,0.60
2019-05-22T13:25:30.301Z,0.77
2019-05-22T13:28:01.200Z,0.97
2019-05-22T13:30:31.491Z,0.70
2019-05-22T13:33:00.421Z,0.90
2019-05-22T13:35:29.245Z,0.80
2019-05-22T13:37:59.443Z,1.13
2019-05-22T13:40:29.006Z,0.80
2019-05-22T13:42:59.101Z,1.57
2019-05-22T13:45:30.172Z,0.90
2019-05-22T13:47:59.305Z,0.90
2019-05-22T13:50:29.421Z,0.90
2019-05-22T13:53:00.831Z,1.00
2019-05-22T13:55:30.396Z,0.53
2019-05-22T13:58:00.290Z,0.87
2019-05-22T14:00:29.578Z,0.87
2019-05-22T14:02:58.904Z,0.90
2019-05-22T14:05:29.562Z,0.97
2019-05-22T14:07:58.294Z,0.80
2019-05-22T14:10:28.944Z,0.63
2019-05-22T14:12:58.330Z,1.60
2019-05-22T14:15:27.265Z,0.70
2019-05-22T14:17:56.791Z,0.70
2019-05-22T14:20:25.706Z,0.70
2019-05-22T14:22:54.686Z,0.80
2019-05-22T14:25:25.518Z,0.80
2019-05-22T14:27:54.206Z,0.77
2019-05-22T14:30:25.491Z,0.80
2019-05-22T14:32:55.625Z,0.70
2019-05-22T14:35:25.807Z,0.50
2019-05-22T14:37:54.794Z,0.70
2019-05-22T14:40:23.749Z,0.80
2019-05-22T14:42:52.541Z,0.90
2019-05-22T14:45:21.940Z,0.97
2019-05-22T14:47:50.973Z,0.83
2019-05-22T14:50:21.171Z,0.63
2019-05-22T14:52:49.860Z,0.70
2019-05-22T14:55:20.065Z,0.80
2019-05-22T14:57:48.957Z,0.70
2019-05-22T15:00:19.647Z,0.80
2019-05-22T15:02:55.205Z,0.60
2019-05-22T15:05:19.590Z,1.13
2019-05-22T15:07:48.390Z,0.80
2019-05-22T15:10:18.960Z,1.10
2019-05-22T15:12:47.928Z,0.70
2019-05-22T15:15:16.747Z,1.00
2019-05-22T15:17:45.592Z,1.00
2019-05-22T15:20:17.290Z,1.00
2019-05-22T15:22:46.106Z,1.03
2019-05-22T15:25:15.047Z,0.77
2019-05-22T15:27:44.631Z,1.00
2019-05-22T15:30:13.639Z,1.00
2019-05-22T15:32:42.470Z,0.70
2019-05-22T15:35:12.468Z,1.17
2019-05-22T15:37:42.068Z,1.20
2019-05-22T15:40:11.993Z,0.93
2019-05-22T15:42:43.828Z,0.87
2019-05-22T15:45:15.994Z,1.20
2019-05-22T15:47:54.673Z,1.53
2019-05-22T15:50:20.440Z,2.00
2019-05-22T15:52:52.235Z,2.67
2019-05-22T15:55:21.562Z,2.20
2019-05-22T15:57:50.659Z,2.30
2019-05-22T16:00:22.348Z,2.00
2019-05-22T16:02:51.640Z,1.20
2019-05-22T16:05:23.087Z,1.13
2019-05-22T16:07:53.060Z,1.27
2019-05-22T16:10:23.861Z,2.10
2019-05-22T16:12:54.385Z,1.20
2019-05-22T16:15:25.273Z,1.70
2019-05-22T16:18:10.564Z,1.37
2019-05-22T16:20:27.347Z,1.40
2019-05-22T16:22:56.914Z,1.37
2019-05-22T16:25:26.344Z,1.63
2019-05-22T16:27:56.039Z,1.70
2019-05-22T16:30:26.325Z,1.87
2019-05-22T16:32:56.394Z,1.17
2019-05-22T16:35:26.198Z,1.50
2019-05-22T16:37:57.340Z,0.87
2019-05-22T16:40:27.747Z,0.87
2019-05-22T16:42:58.686Z,1.03
2019-05-22T16:45:28.214Z,1.10
2019-05-22T16:47:58.835Z,1.10
2019-05-22T16:50:28.223Z,0.90
2019-05-22T16:52:59.776Z,0.80
2019-05-22T16:55:30.079Z,1.00
2019-05-22T16:57:58.862Z,1.10
2019-05-22T17:00:29.610Z,1.00
2019-05-22T17:02:59.411Z,0.90
2019-05-22T17:05:28.474Z,1.60
2019-05-22T17:07:58.244Z,1.03
2019-05-22T17:10:27.251Z,0.83
2019-05-22T17:12:57.250Z,0.90
2019-05-22T17:15:26.472Z,0.90
2019-05-22T17:17:55.176Z,1.30
2019-05-22T17:20:28.785Z,1.00
2019-05-22T17:22:57.932Z,0.97
2019-05-22T17:25:28.025Z,0.90
2019-05-22T17:27:56.726Z,1.10
2019-05-22T17:30:27.477Z,0.90
2019-05-22T17:32:58.501Z,1.00
2019-05-22T17:35:28.468Z,0.73
2019-05-22T17:37:58.315Z,1.00
2019-05-22T17:40:27.425Z,0.90
2019-05-22T17:42:56.529Z,0.87
2019-05-22T17:45:27.033Z,0.90
2019-05-22T17:47:56.428Z,1.03
2019-05-22T17:50:27.801Z,1.33
2019-05-22T17:52:57.170Z,1.77
2019-05-22T17:55:27.373Z,1.40
2019-05-22T17:57:56.657Z,1.40
2019-05-22T18:00:43.552Z,1.20
2019-05-22T18:03:14.000Z,1.33
2019-05-22T18:05:42.885Z,1.80
2019-05-22T18:08:12.826Z,1.83
2019-05-22T18:10:43.014Z,1.67
2019-05-22T18:13:12.818Z,2.03
2019-05-22T18:15:42.139Z,1.97
2019-05-22T18:18:11.241Z,1.90
2019-05-22T18:20:43.728Z,1.50
2019-05-22T18:23:10.799Z,1.20
2019-05-22T18:25:40.774Z,1.03
2019-05-22T18:28:10.717Z,0.70
2019-05-22T18:30:41.195Z,0.80
2019-05-22T18:33:09.926Z,0.80
2019-05-22T18:35:38.923Z,0.90
2019-05-22T18:38:07.756Z,0.97
2019-05-22T18:40:36.860Z,1.43
2019-05-22T18:43:05.564Z,0.67
2019-05-22T18:45:35.107Z,0.60
2019-05-22T18:48:04.514Z,0.60
2019-05-22T18:50:37.531Z,0.67
2019-05-22T18:53:06.850Z,0.70
2019-05-22T18:55:35.553Z,0.60
2019-05-22T18:58:04.461Z,0.70
2019-05-22T19:00:33.703Z,1.00
2019-05-22T19:03:05.584Z,0.70
2019-05-22T19:05:36.020Z,0.70
2019-05-22T19:08:04.894Z,0.70
2019-05-22T19:10:33.908Z,0.73
2019-05-22T19:13:02.807Z,0.77
2019-05-22T19:15:32.086Z,0.83
2019-05-22T19:18:02.430Z,0.90
2019-05-22T19:20:31.152Z,1.20
2019-05-22T19:23:01.738Z,1.00
2019-05-22T19:25:30.763Z,0.80
2019-05-22T19:27:59.476Z,0.80
2019-05-22T19:30:28.424Z,0.80
2019-05-22T19:32:57.125Z,1.00
2019-05-22T19:35:25.827Z,0.97
2019-05-22T19:37:55.914Z,1.13
2019-05-22T19:40:24.717Z,0.97
2019-05-22T19:42:53.612Z,0.83
2019-05-22T19:45:23.055Z,1.10
2019-05-22T19:47:54.487Z,0.97
2019-05-22T19:50:25.062Z,1.00
2019-05-22T19:52:55.181Z,0.90
2019-05-22T19:55:25.890Z,1.03
2019-05-22T19:57:55.188Z,0.70
2019-05-22T20:00:24.743Z,0.97
2019-05-22T20:02:54.703Z,1.00
2019-05-22T20:05:24.128Z,0.63
2019-05-22T20:07:53.447Z,0.70
2019-05-22T20:10:22.534Z,1.03
2019-05-22T20:12:51.439Z,0.93
2019-05-22T20:15:20.377Z,0.93
2019-05-22T20:17:49.110Z,1.00
2019-05-22T20:20:19.929Z,0.80
2019-05-22T20:22:49.753Z,1.13
2019-05-22T20:25:20.579Z,0.80
2019-05-22T20:27:49.368Z,0.80
2019-05-22T20:30:20.222Z,0.63
2019-05-22T20:32:49.444Z,1.30
2019-05-22T20:35:18.780Z,1.00
2019-05-22T20:37:48.077Z,1.13
2019-05-22T20:40:20.301Z,1.00
2019-05-22T20:42:49.212Z,1.57
2019-05-22T20:45:21.044Z,1.00
2019-05-22T20:47:54.216Z,1.47
2019-05-22T20:50:25.331Z,1.30
2019-05-22T20:52:55.045Z,1.20
2019-05-22T20:55:23.877Z,1.00
2019-05-22T20:57:53.071Z,1.10
2019-05-22T21:00:21.981Z,0.90
2019-05-22T21:02:53.616Z,1.00
2019-05-22T21:05:23.897Z,1.10
2019-05-22T21:07:55.494Z,1.00
2019-05-22T21:10:24.557Z,0.63
2019-05-22T21:12:54.366Z,0.97
2019-05-22T21:15:23.056Z,0.77
2019-05-22T21:17:52.514Z,0.80
2019-05-22T21:20:23.054Z,0.70
2019-05-22T21:22:52.325Z,0.80
2019-05-22T21:25:21.057Z,1.17
2019-05-22T21:27:50.068Z,0.70
2019-05-22T21:30:19.650Z,0.90
2019-05-22T21:32:49.171Z,1.07
2019-05-22T21:35:19.460Z,0.80
2019-05-22T21:37:48.541Z,0.80
2019-05-22T21:40:21.224Z,0.83
2019-05-22T21:42:51.283Z,0.70
2019-05-22T21:45:20.764Z,0.80
2019-05-22T21:47:49.537Z,0.70
2019-05-22T21:50:20.435Z,0.80
2019-05-22T21:52:49.122Z,0.70
2019-05-22T21:55:19.372Z,0.70
2019-05-22T21:57:48.077Z,0.80
2019-05-22T22:00:37.391Z,0.77
2019-05-22T22:03:07.800Z,0.60
2019-05-22T22:05:37.507Z,0.80
2019-05-22T22:08:06.165Z,1.00
2019-05-22T22:10:35.546Z,0.70
2019-05-22T22:13:07.789Z,0.80
2019-05-22T22:15:43.188Z,0.80
2019-05-22T22:18:13.187Z,0.80
2019-05-22T22:20:42.797Z,0.63
2019-05-22T22:23:14.595Z,0.90
2019-05-22T22:25:43.692Z,0.60
2019-05-22T22:28:15.690Z,0.77
2019-05-22T22:30:46.882Z,0.90
2019-05-22T22:33:17.781Z,0.90
2019-05-22T22:35:47.384Z,0.90
2019-05-22T22:38:16.045Z,0.80
2019-05-22T22:40:45.137Z,0.80
2019-05-22T22:43:14.228Z,0.80
2019-05-22T22:45:47.906Z,0.90
2019-05-22T22:48:18.271Z,1.00
2019-05-22T22:50:47.237Z,0.90
2019-05-22T22:53:17.118Z,1.00
2019-05-22T22:55:48.338Z,1.00
2019-05-22T22:58:19.694Z,1.00
2019-05-22T23:00:49.462Z,0.90
2019-05-22T23:03:21.968Z,0.90
2019-05-22T23:05:51.373Z,1.00
2019-05-22T23:08:26.036Z,1.00
2019-05-22T23:10:55.335Z,1.20
2019-05-22T23:13:25.339Z,0.87
2019-05-22T23:15:54.706Z,1.03
2019-05-22T23:18:45.868Z,0.83
2019-05-22T23:21:14.977Z,0.80
2019-05-22T23:23:42.379Z,0.90
2019-05-22T23:26:11.582Z,0.93
2019-05-22T23:28:42.244Z,0.87
2019-05-22T23:31:11.922Z,1.13
2019-05-22T23:33:41.016Z,0.80
2019-05-22T23:36:12.059Z,0.90
2019-05-22T23:38:41.646Z,1.00
2019-05-22T23:41:11.942Z,1.00
2019-05-22T23:43:42.385Z,0.90
2019-05-22T23:46:13.474Z,0.77
2019-05-22T23:48:43.894Z,0.70
2019-05-22T23:51:12.931Z,1.03
2019-05-22T23:53:42.819Z,1.00
2019-05-22T23:56:12.007Z,1.00
2019-05-22T23:58:52.081Z,0.90
